Nearby METAR Reports

 

KPAE - Everett, Washington, USA
Distance from station: NW 15mi, 25km
Updated: 02/23/2019 5:53pm
Overcast
Overcast
 Wind from E
Wind: E 8 mph , 13 km/h
Temperature: 37°F , 3°C
Wind Chill: 31°F , -1°C
Dew Point: 34°F , 1°C
Humidity: 87%
Barometer: 30.06 inHg , 1017.9 hPa
Clouds: Overcast
Visibility: 10 miles , 16 km
Cloud details: Mostly cloudy 8000 ft
Overcast 10000 ft
2019/02/24 01:53 KPAE 240153Z 08007KT 10SM BKN080 OVC100 03/01 A3006 RMK AO2 SLP184 T00330011
KBFI - Seattle/Boeing, Washington, USA
Distance from station: SW 20mi, 31km
Updated: 02/23/2019 6:28pm
Rain, Overcast
Rain, Overcast
 Wind from calm
Wind: Calm
Temperature: 43°F , 6°C
Dew Point: 37°F , 3°C
Humidity: 81%
Barometer: 30.07 inHg , 1018.3 hPa
Summary: Rain
Clouds: Overcast
Visibility: 3 miles , 5 km
Cloud details: Partly cloudy 1200 ft
Mostly cloudy 2300 ft
Overcast 4100 ft
2019/02/24 02:28 KBFI 240228Z 00000KT 3SM RA SCT012 BKN023 OVC041 06/03 A3007 RMK AO2 RAB16 P0003 T00560028
KSEA - Seattle/Metro, Washington, USA
Distance from station: SSW 25mi, 41km
Updated: 02/23/2019 6:06pm
Light rain, Overcast
Light rain, Overcast
 Wind from WNW
Wind: WNW 3 mph , 6 km/h
Temperature: 43°F , 6°C
Dew Point: 36°F , 2°C
Humidity: 76%
Barometer: 30.06 inHg , 1017.9 hPa
Summary: Light rain
Clouds: Overcast
Visibility: 5 miles , 8 km
Cloud details: Mostly cloudy 1900 ft
Mostly cloudy 2800 ft
Overcast 3700 ft
2019/02/24 02:06 KSEA 240206Z 29003KT 5SM -RA BKN019 BKN028 OVC037 06/02 A3006 RMK AO2 RAB0156 P0001 T00560022
 
KAWO - Arlington Muni, Washington, USA
Distance from station: NNW 28mi, 46km
Updated: 02/23/2019 5:56pm
Overcast
Overcast
 Wind from E
Wind: E 8 mph , 13 km/h
Temperature: 39°F , 4°C
Wind Chill: 33°F , 1°C
Dew Point: 34°F , 1°C
Humidity: 81%
Barometer: 30.08 inHg , 1018.6 hPa
Clouds: Overcast
Visibility: 10 miles , 16 km
Cloud details: Mostly cloudy 7000 ft
Overcast 8000 ft
2019/02/24 01:56 KAWO 240156Z AUTO 10007KT 10SM BKN070 OVC080 04/01 A3008 RMK AO2 SLP192 T00440011
KPWT - Bremerton Ntnl, Washington, USA
Distance from station: WSW 38mi, 61km
Updated: 02/23/2019 6:37pm
Light rain, Mostly cloudy
Light rain, Mostly cloudy
 Wind from W
Wind: W 6 mph , 9 km/h
Temperature: 37°F , 3°C
Wind Chill: 32°F , 0°C
Dew Point: 36°F , 2°C
Humidity: 93%
Barometer: 30.05 inHg , 1017.6 hPa
Summary: Light rain
Clouds: Mostly cloudy
Visibility: 10 miles , 16 km
Cloud details: Partly cloudy 2000 ft
Partly cloudy 2700 ft
Mostly cloudy 3700 ft
2019/02/24 02:37 KPWT 240237Z AUTO 26005KT 10SM -RA SCT020 SCT027 BKN037 03/02 A3005 RMK AO2 RAB07 P0000
KTIW - Tacoma, Washington, USA
Distance from station: SW 43mi, 69km
Updated: 02/23/2019 5:53pm
Overcast
Overcast
 Wind from SSW
Wind: SSW 5 mph , 7 km/h
Temperature: 43°F , 6°C
Wind Chill: 40°F , 4°C
Dew Point: 36°F , 2°C
Humidity: 76%
Barometer: 30.06 inHg , 1017.9 hPa
Clouds: Overcast
Visibility: 10 miles , 16 km
Cloud details: Few Clouds 2600 ft
Mostly cloudy 3100 ft
Overcast 9000 ft
2019/02/24 01:53 KTIW 240153Z 21004KT 10SM FEW026 BKN031 OVC090 06/02 A3006 RMK AO2 RAB0057E41 SLP182 P0000 T00560017
 
KPLU - Puyallup/Thun, Washington, USA
Distance from station: SSW 47mi, 76km
Updated: 02/23/2019 6:35pm
Overcast
Overcast
 Wind from calm
Wind: Calm
Temperature: 41°F , 5°C
Dew Point: 36°F , 2°C
Humidity: 81%
Barometer: 30.05 inHg , 1017.6 hPa
Clouds: Overcast
Visibility: 10 miles , 16 km
Cloud details: Mostly cloudy 4900 ft
Overcast 5500 ft
2019/02/24 02:35 KPLU 240235Z AUTO 00000KT 10SM BKN049 OVC055 05/02 A3005 RMK AO2
KSMP - Stampede Pass, Washington, USA
Distance from station: SE 47mi, 76km
Updated: 02/23/2019 5:56pm
Overcast
Overcast
 Wind from varies
Wind: varies 3 mph , 6 km/h
Temperature: 25°F , -4°C
Dew Point: 19°F , -7°C
Humidity: 80%
Barometer: 29.94 inHg , 1013.9 hPa
Clouds: Overcast
Visibility: 10 miles , 16 km
Cloud details: Mostly cloudy 3600 ft
Mostly cloudy 8000 ft
Overcast 11000 ft
2019/02/24 01:56 KSMP 240156Z AUTO VRB03KT 10SM BKN036 BKN080 OVC110 M04/M07 A2994 RMK AO2 SLP173 T10391067 $
KNUW - Whidbey Is. Nas, Washington, USA
Distance from station: NW 49mi, 79km
Updated: 02/23/2019 5:56pm
Mostly cloudy
Mostly cloudy
 Wind from ESE
Wind: ESE 10 mph , 17 km/h
Temperature: 43°F , 6°C
Wind Chill: 37°F , 3°C
Dew Point: 34°F , 1°C
Humidity: 71%
Barometer: 30.10 inHg , 1019.3 hPa
Clouds: Mostly cloudy
Visibility: 10 miles , 16 km
Cloud details: Partly cloudy 2800 ft
Mostly cloudy 3400 ft
Mostly cloudy 15000 ft
Mostly cloudy 25000 ft
2019/02/24 01:56 KNUW 240156Z 11009KT 10SM SCT028 BKN034 BKN150 BKN250 06/01 A3010 RMK AO2 SLP192 T00610011 $
 
KBVS - Burlington/Mt V, Washington, USA
Distance from station: NNW 51mi, 83km
Updated: 02/23/2019 6:35pm
Overcast
Overcast
 Wind from ENE
Wind: ENE 7 mph , 11 km/h
Temperature: 39°F , 4°C
Wind Chill: 34°F , 1°C
Dew Point: 36°F , 2°C
Humidity: 87%
Barometer: 30.08 inHg , 1018.6 hPa
Clouds: Overcast
Visibility: 10 miles , 16 km
Cloud details: Partly cloudy 4000 ft
Overcast 4900 ft
2019/02/24 02:35 KBVS 240235Z AUTO 06006KT 10SM SCT040 OVC049 04/02 A3008 RMK A01
KSHN - Shelton, Washington, USA
Distance from station: SW 63mi, 101km
Updated: 02/23/2019 5:53pm
Overcast
Overcast
 Wind from W
Wind: W 3 mph , 6 km/h
Temperature: 37°F , 3°C
Dew Point: 34°F , 1°C
Humidity: 87%
Barometer: 30.04 inHg , 1017.3 hPa
Clouds: Overcast
Visibility: 10 miles , 16 km
Cloud details: Few Clouds 2800 ft
Mostly cloudy 4200 ft
Overcast 4900 ft
2019/02/24 01:53 KSHN 240153Z AUTO 26003KT 10SM FEW028 BKN042 OVC049 03/01 A3004 RMK AO2 RAE45UPB23E28 SLP179 P0001 T00280011
KOLM - Olympia, Washington, USA
Distance from station: SW 68mi, 110km
Updated: 02/23/2019 5:54pm
Overcast
Overcast
 Wind from calm
Wind: Calm
Temperature: 39°F , 4°C
Dew Point: 37°F , 3°C
Humidity: 93%
Barometer: 30.06 inHg , 1017.9 hPa
Clouds: Overcast
Visibility: 10 miles , 16 km
Cloud details: Partly cloudy 2700 ft
Mostly cloudy 6000 ft
Overcast 11000 ft
2019/02/24 01:54 KOLM 240154Z 00000KT 10SM SCT027 BKN060 OVC110 04/03 A3006 RMK AO2 SLP181 T00440028
 
KCLM - Port Angeles, Washington, USA
Distance from station: WNW 72mi, 115km
Updated: 02/23/2019 5:53pm
Mostly cloudy
Mostly cloudy
 Wind from WSW
Wind: WSW 5 mph , 7 km/h
Temperature: 37°F , 3°C
Wind Chill: 33°F , 1°C
Dew Point: 32°F , 0°C
Humidity: 81%
Barometer: 30.05 inHg , 1017.6 hPa
Clouds: Mostly cloudy
Visibility: 10 miles , 16 km
Cloud details: Mostly cloudy 6500 ft
2019/02/24 01:53 KCLM 240153Z AUTO 25004KT 10SM BKN065 03/00 A3005 RMK AO2 SLP178 T00280000
CWYJ - Victoria Univ, British Columbia, Canada
Distance from station: NW 75mi, 121km
Updated: 02/23/2019 6:00pm

 Wind from ESE
Wind: ESE 1 mph , 2 km/h
Temperature: 43°F , 6°C
Dew Point: 36°F , 2°C
Humidity: 76%
2019/02/24 02:00 CWYJ 240200Z AUTO 11001KT 06/02 RMK AO1 SLP171 T00580021 58008
KBLI - Bellingham, Washington, USA
Distance from station: NNW 75mi, 121km
Updated: 02/23/2019 5:53pm
Mostly cloudy
Mostly cloudy
 Wind from NNE
Wind: NNE 8 mph , 13 km/h
Temperature: 37°F , 3°C
Wind Chill: 31°F , -1°C
Dew Point: 34°F , 1°C
Humidity: 87%
Barometer: 30.07 inHg , 1018.3 hPa
Clouds: Mostly cloudy
Visibility: 10 miles , 16 km
Cloud details: Few Clouds 2000 ft
Mostly cloudy 3800 ft
Mostly cloudy 5500 ft
2019/02/24 01:53 KBLI 240153Z 02007KT 10SM FEW020 BKN038 BKN055 03/01 A3007 RMK AO2 SLP193 T00330006